Cottonwd Hgts, Utah
Current Conditions -  °F | °C
As of 3:53 AM on Sunday 21 Dec 2014 (Local Time) from KSLC Reporting Station
Light Rain Light Rain  
Wind Chill: 36°   Ceiling: 3400
Heat Index: 42°   Visibility: 10mi
Dew Point: 34°   Wind: 12mph
Humidity: 73%   Direction: 190°S
Pressure: 29.99"   Gusts: NA
Location:  40.615°N, 111.891°W
Report Text: KSLC 211053Z 19010KT 10SM -RA OVC034 06/01 A2999 RMK AO2 SLP151 P0001 T00560011 $
Loading
Personal Weather Stations






























Interactive Weather Map New forecast layout! Learn more

10-Day Weather Forecast

Advertisements
Track Severe Weather on mobile